Time;durP1;ratioP1;P1;durP2;ratioP2;P2;SDS_P1;SDS_P2;PMS_P1;PMS_P2;Temp;Humidity;BMP_temperature;BMP_pressure;BME280_temperature;BME280_humidity;BME280_pressure;Samples;Min_cycle;Max_cycle;Signal;HPM_P1;HPM_P2
2023/01/03 00:01:34;;;;;;;9.53;1.70;;;;;;;;;;4985807;28;20424;-93
2023/01/03 00:04:01;;;;;;;2.50;0.90;;;;;;;;;;4986300;28;20414;-93
2023/01/03 00:06:28;;;;;;;4.27;0.90;;;;;;;;;;4983642;28;20425;-93
2023/01/03 00:08:55;;;;;;;3.60;1.20;;;;;;;;;;4986139;28;21039;-93
2023/01/03 00:14:12;;;;;;;9.93;1.23;;;;;;;;;;4999930;28;20773;-93
2023/01/03 00:17:00;;;;;;;5.90;0.63;;;;;;;;;;4982402;28;20475;-93
2023/01/03 00:20:10;;;;;;;2.40;0.40;;;;;;;;;;4999363;28;20554;-92
2023/01/03 00:22:56;;;;;;;4.43;0.40;;;;;;;;;;4961055;28;20436;-91
2023/01/03 00:25:22;;;;;;;3.10;0.60;;;;;;;;;;4982600;28;20421;-91
2023/01/03 00:27:47;;;;;;;6.20;1.27;;;;;;;;;;4987039;28;20498;-85
2023/01/03 00:30:13;;;;;;;3.20;0.63;;;;;;;;;;5009526;28;20402;-92
2023/01/03 00:32:39;;;;;;;4.23;0.67;;;;;;;;;;4981753;28;20452;-92
2023/01/03 00:35:05;;;;;;;10.03;2.00;;;;;;;;;;4999323;28;20424;-93
2023/01/03 00:37:31;;;;;;;6.40;1.43;;;;;;;;;;4981402;28;20433;-92
2023/01/03 00:39:57;;;;;;;4.07;0.40;;;;;;;;;;4981504;28;20429;-91
2023/01/03 00:42:23;;;;;;;2.90;0.57;;;;;;;;;;4982182;28;20433;-93
2023/01/03 00:44:49;;;;;;;1.00;0.40;;;;;;;;;;4982041;28;20912;-93
2023/01/03 00:47:15;;;;;;;3.67;0.80;;;;;;;;;;4982082;28;20549;-92
2023/01/03 00:49:50;;;;;;;6.77;0.50;;;;;;;;;;4981326;28;20421;-93
2023/01/03 00:52:16;;;;;;;1.43;0.93;;;;;;;;;;4981110;28;20428;-88
2023/01/03 00:54:42;;;;;;;4.47;0.67;;;;;;;;;;4980530;28;20431;-92
2023/01/03 00:57:08;;;;;;;2.70;0.80;;;;;;;;;;4981444;28;20426;-92
2023/01/03 00:59:33;;;;;;;2.53;0.60;;;;;;;;;;4981332;28;20784;-92
2023/01/03 01:01:59;;;;;;;2.67;0.30;;;;;;;;;;4981430;28;20857;-91
2023/01/03 01:04:27;;;;;;;2.03;0.50;;;;;;;;;;4985114;28;20767;-93
2023/01/03 01:06:55;;;;;;;5.63;0.93;;;;;;;;;;4981783;28;20476;-92
2023/01/03 01:09:27;;;;;;;4.13;0.63;;;;;;;;;;4980340;28;20467;-90
2023/01/03 01:11:53;;;;;;;4.37;0.50;;;;;;;;;;4997257;28;20409;-91
2023/01/03 01:14:20;;;;;;;4.10;0.97;;;;;;;;;;4979171;28;20416;-90
2023/01/03 01:16:48;;;;;;;2.03;0.37;;;;;;;;;;4978998;28;20876;-88
2023/01/03 01:19:17;;;;;;;3.30;0.60;;;;;;;;;;4979947;28;20428;-91
2023/01/03 01:21:43;;;;;;;4.67;0.57;;;;;;;;;;4978967;28;20416;-91
2023/01/03 01:24:30;;;;;;;1.97;0.33;;;;;;;;;;4945003;28;20444;-91
2023/01/03 01:26:59;;;;;;;3.20;0.40;;;;;;;;;;4978425;28;20465;-86
2023/01/03 01:29:28;;;;;;;6.80;1.30;;;;;;;;;;4960896;28;20514;-88
2023/01/03 01:31:54;;;;;;;6.53;0.87;;;;;;;;;;4961848;28;20409;-85
2023/01/03 01:34:20;;;;;;;0.80;0.30;;;;;;;;;;4960603;28;20425;-88
2023/01/03 01:36:46;;;;;;;10.13;1.27;;;;;;;;;;4961039;28;20429;-92
2023/01/03 01:39:17;;;;;;;5.00;0.40;;;;;;;;;;4966855;28;20413;-90
2023/01/03 01:44:41;;;;;;;2.30;0.57;;;;;;;;;;4980974;28;20421;-91
2023/01/03 01:47:17;;;;;;;4.13;0.60;;;;;;;;;;4966752;28;20476;-94
2023/01/03 01:49:43;;;;;;;1.90;0.63;;;;;;;;;;4966776;28;20421;-94
2023/01/03 01:52:09;;;;;;;3.17;0.53;;;;;;;;;;4986439;28;20412;-89
2023/01/03 01:54:35;;;;;;;4.30;0.50;;;;;;;;;;4969245;28;20415;-94
2023/01/03 01:57:01;;;;;;;4.53;1.20;;;;;;;;;;4980017;28;20443;-90
2023/01/03 01:59:27;;;;;;;3.27;0.60;;;;;;;;;;4969049;28;20475;-93
2023/01/03 02:01:53;;;;;;;5.93;0.50;;;;;;;;;;4984690;28;20419;-93
2023/01/03 02:04:25;;;;;;;1.33;0.90;;;;;;;;;;4985561;28;20482;-93
2023/01/03 02:06:51;;;;;;;3.77;0.67;;;;;;;;;;4984845;28;20460;-91
2023/01/03 02:10:00;;;;;;;3.00;0.60;;;;;;;;;;5119021;27;20544;-94
2023/01/03 02:15:26;;;;;;;4.07;1.10;;;;;;;;;;5119134;28;20392;-93
2023/01/03 02:18:11;;;;;;;3.23;1.30;;;;;;;;;;5111967;28;20498;-93
2023/01/03 02:20:47;;;;;;;3.17;0.90;;;;;;;;;;5119898;28;20408;-94
2023/01/03 02:23:33;;;;;;;3.60;1.13;;;;;;;;;;5118935;28;20440;-94
2023/01/03 02:26:08;;;;;;;5.93;1.40;;;;;;;;;;5120204;28;20397;-94
2023/01/03 02:28:45;;;;;;;2.33;1.40;;;;;;;;;;5119123;28;20530;-88
2023/01/03 02:31:11;;;;;;;5.60;1.67;;;;;;;;;;5115924;28;20410;-93
2023/01/03 02:33:37;;;;;;;2.50;1.07;;;;;;;;;;5116998;28;20776;-94
2023/01/03 02:36:23;;;;;;;3.67;1.27;;;;;;;;;;5118901;28;20407;-94
2023/01/03 02:38:52;;;;;;;7.47;1.30;;;;;;;;;;5073159;28;20403;-84
2023/01/03 02:41:21;;;;;;;4.37;1.20;;;;;;;;;;5111516;28;20412;-92
2023/01/03 02:43:53;;;;;;;2.40;1.10;;;;;;;;;;5110716;28;20414;-92
2023/01/03 02:46:41;;;;;;;4.57;1.30;;;;;;;;;;5110600;28;20809;-92
2023/01/03 02:49:13;;;;;;;3.23;0.83;;;;;;;;;;5110545;28;20466;-92
2023/01/03 02:51:44;;;;;;;1.97;0.50;;;;;;;;;;5111866;28;20413;-93
2023/01/03 02:54:11;;;;;;;5.10;1.17;;;;;;;;;;5095144;28;20473;-94
2023/01/03 02:56:39;;;;;;;5.90;1.30;;;;;;;;;;5116330;28;20494;-95
2023/01/03 02:59:06;;;;;;;2.50;0.50;;;;;;;;;;5116594;28;20477;-94
2023/01/03 03:01:33;;;;;;;5.47;2.67;;;;;;;;;;5116639;28;20410;-94
2023/01/03 03:04:00;;;;;;;4.53;1.20;;;;;;;;;;5115818;28;20471;-95
2023/01/03 03:06:29;;;;;;;5.30;1.20;;;;;;;;;;5077301;28;20426;-94
2023/01/03 03:08:55;;;;;;;3.57;1.40;;;;;;;;;;5113813;28;20513;-94
2023/01/03 03:14:16;;;;;;;2.87;1.20;;;;;;;;;;5114859;28;20414;-95
2023/01/03 03:16:46;;;;;;;5.60;1.10;;;;;;;;;;5115668;28;20394;-93
2023/01/03 03:24:48;;;;;;;3.67;1.10;;;;;;;;;;5116026;28;20404;-92
2023/01/03 03:24:50;;;;;;;2.63;1.50;;;;;;;;;;5114439;28;20464;-83
2023/01/03 03:30:05;;;;;;;12.60;1.50;;;;;;;;;;5097582;28;20471;-92
2023/01/03 03:32:32;;;;;;;9.30;1.97;;;;;;;;;;5097174;28;20410;-93
2023/01/03 03:34:59;;;;;;;6.37;1.73;;;;;;;;;;5096109;28;20960;-94
2023/01/03 03:37:26;;;;;;;3.27;1.03;;;;;;;;;;5095848;28;20982;-92
2023/01/03 03:45:31;;;;;;;2.57;0.80;;;;;;;;;;5097386;28;20406;-85
2023/01/03 03:48:09;;;;;;;6.90;2.00;;;;;;;;;;5095689;28;20461;-93
2023/01/03 03:50:53;;;;;;;1.70;0.80;;;;;;;;;;5095597;28;20502;-92
2023/01/03 03:53:21;;;;;;;1.80;0.80;;;;;;;;;;5096804;28;20406;-94
2023/01/03 03:56:09;;;;;;;5.80;0.97;;;;;;;;;;5096685;28;20430;-94
2023/01/03 03:58:43;;;;;;;2.97;0.60;;;;;;;;;;5099295;28;20795;-95
2023/01/03 04:01:12;;;;;;;1.77;1.00;;;;;;;;;;5099000;28;20469;-87
2023/01/03 04:03:40;;;;;;;2.77;0.90;;;;;;;;;;5099301;28;20478;-94
2023/01/03 04:06:24;;;;;;;4.13;1.50;;;;;;;;;;5098293;28;20446;-93
2023/01/03 04:08:49;;;;;;;2.13;0.90;;;;;;;;;;5094480;28;20513;-92
2023/01/03 04:11:15;;;;;;;2.83;0.83;;;;;;;;;;5095387;28;20417;-93
2023/01/03 04:13:41;;;;;;;4.80;1.90;;;;;;;;;;5095296;28;20424;-91
2023/01/03 04:16:07;;;;;;;2.50;1.20;;;;;;;;;;5095500;28;20406;-94
2023/01/03 04:18:34;;;;;;;6.80;1.53;;;;;;;;;;5095415;28;20433;-93
2023/01/03 04:20:59;;;;;;;5.63;1.77;;;;;;;;;;5096538;28;20544;-93
2023/01/03 04:23:25;;;;;;;4.40;1.90;;;;;;;;;;5097060;28;20444;-94
2023/01/03 04:25:51;;;;;;;4.37;1.80;;;;;;;;;;5094153;28;20415;-90
2023/01/03 04:28:29;;;;;;;6.70;2.23;;;;;;;;;;5095209;28;20989;-94
2023/01/03 04:30:55;;;;;;;4.67;2.10;;;;;;;;;;5095009;28;20514;-94
2023/01/03 04:33:21;;;;;;;4.77;1.63;;;;;;;;;;5095346;28;20467;-93
2023/01/03 04:35:54;;;;;;;3.93;1.50;;;;;;;;;;5102066;28;20419;-96
2023/01/03 04:38:20;;;;;;;1.93;1.53;;;;;;;;;;5107196;28;20845;-96
2023/01/03 04:40:46;;;;;;;7.97;2.17;;;;;;;;;;5105188;28;20441;-95
2023/01/03 04:45:56;;;;;;;7.40;2.53;;;;;;;;;;5108040;28;20410;-95
2023/01/03 04:48:22;;;;;;;6.60;2.43;;;;;;;;;;5108560;28;20442;-93
2023/01/03 04:50:52;;;;;;;4.00;1.80;;;;;;;;;;5110643;28;20958;-93
2023/01/03 04:53:18;;;;;;;6.40;1.60;;;;;;;;;;5113905;28;20419;-93
2023/01/03 04:55:50;;;;;;;5.30;2.33;;;;;;;;;;5104214;28;20918;-94
2023/01/03 04:58:16;;;;;;;4.80;2.13;;;;;;;;;;5095565;28;20921;-93
2023/01/03 05:00:42;;;;;;;3.43;1.90;;;;;;;;;;5094801;28;20503;-91
2023/01/03 05:03:11;;;;;;;3.73;2.17;;;;;;;;;;5094604;28;20442;-94
2023/01/03 05:05:37;;;;;;;5.90;2.40;;;;;;;;;;5080010;28;20416;-88
2023/01/03 05:08:07;;;;;;;7.90;2.57;;;;;;;;;;5069253;28;20514;-89
2023/01/03 05:10:33;;;;;;;7.90;2.17;;;;;;;;;;5094918;28;20418;-93
2023/01/03 05:13:00;;;;;;;4.57;2.30;;;;;;;;;;5094189;28;20406;-93
2023/01/03 05:15:29;;;;;;;4.60;2.10;;;;;;;;;;5094802;28;20423;-86
2023/01/03 05:17:55;;;;;;;3.47;1.90;;;;;;;;;;5095511;28;20884;-94
2023/01/03 05:25:57;;;;;;;8.30;2.97;;;;;;;;;;5096194;28;20379;-93
2023/01/03 05:28:23;;;;;;;4.27;1.97;;;;;;;;;;5095257;28;20450;-89
2023/01/03 05:30:49;;;;;;;4.93;2.50;;;;;;;;;;5095266;28;20793;-93
2023/01/03 05:33:18;;;;;;;6.73;2.90;;;;;;;;;;5099355;28;20412;-96
2023/01/03 05:35:46;;;;;;;7.40;2.33;;;;;;;;;;5101545;28;20418;-95
2023/01/03 05:38:12;;;;;;;5.57;2.20;;;;;;;;;;5102003;28;20433;-90
2023/01/03 05:40:40;;;;;;;5.20;2.23;;;;;;;;;;5101269;28;20414;-88
2023/01/03 05:43:06;;;;;;;5.20;3.57;;;;;;;;;;5098587;28;20418;-94
2023/01/03 05:45:36;;;;;;;6.33;3.03;;;;;;;;;;5098046;28;20451;-94
2023/01/03 05:48:04;;;;;;;7.13;3.17;;;;;;;;;;5085513;28;20461;-95
2023/01/03 05:50:32;;;;;;;5.57;3.37;;;;;;;;;;5103123;28;20426;-95
2023/01/03 05:53:21;;;;;;;6.70;3.00;;;;;;;;;;5101932;28;20437;-87
2023/01/03 05:55:47;;;;;;;5.63;4.03;;;;;;;;;;5102102;28;20436;-94
2023/01/03 05:58:13;;;;;;;8.53;3.70;;;;;;;;;;5080929;28;20418;-96
2023/01/03 06:00:45;;;;;;;6.43;4.40;;;;;;;;;;5102231;28;20410;-93
2023/01/03 06:03:14;;;;;;;10.20;4.33;;;;;;;;;;5099843;28;20410;-93
2023/01/03 06:05:41;;;;;;;7.70;4.17;;;;;;;;;;5099839;28;20406;-94
2023/01/03 06:08:27;;;;;;;4.30;3.83;;;;;;;;;;5096800;28;20486;-96
2023/01/03 06:10:53;;;;;;;7.27;3.20;;;;;;;;;;5096445;28;20975;-95
2023/01/03 06:13:20;;;;;;;11.63;4.70;;;;;;;;;;5096635;28;20418;-95
2023/01/03 06:17:53;;;;;;;5.70;4.03;;;;;;;;;;5096673;28;20774;-94
2023/01/03 06:18:34;;;;;;;6.90;4.20;;;;;;;;;;5099308;28;20434;-92
2023/01/03 06:21:01;;;;;;;11.13;4.53;;;;;;;;;;5105725;28;20402;-90
2023/01/03 06:23:27;;;;;;;8.90;4.40;;;;;;;;;;5093841;28;20413;-93
2023/01/03 06:25:53;;;;;;;11.37;4.97;;;;;;;;;;5094116;28;20791;-89
2023/01/03 06:28:19;;;;;;;6.17;4.00;;;;;;;;;;5093848;28;20490;-90
2023/01/03 06:30:47;;;;;;;8.20;5.00;;;;;;;;;;5094921;28;20426;-93
2023/01/03 06:33:13;;;;;;;15.37;5.57;;;;;;;;;;5094085;28;20456;-94
2023/01/03 06:35:39;;;;;;;7.37;5.00;;;;;;;;;;5095797;28;20731;-88
2023/01/03 06:38:05;;;;;;;9.00;5.57;;;;;;;;;;5095653;28;20975;-88
2023/01/03 06:40:32;;;;;;;9.23;4.20;;;;;;;;;;5096235;28;20418;-84
2023/01/03 06:42:58;;;;;;;12.77;5.50;;;;;;;;;;5111047;28;20429;-91
2023/01/03 06:53:39;;;;;;;8.63;4.30;;;;;;;;;;5095575;28;20886;-90
2023/01/03 06:56:05;;;;;;;6.90;5.70;;;;;;;;;;5098822;28;20521;-85
2023/01/03 06:58:31;;;;;;;5.73;3.63;;;;;;;;;;5106925;28;20395;-85
2023/01/03 07:00:59;;;;;;;8.20;4.00;;;;;;;;;;5105063;28;20418;-88
2023/01/03 07:03:25;;;;;;;6.90;4.93;;;;;;;;;;5101217;28;20421;-93
2023/01/03 07:05:51;;;;;;;5.30;4.20;;;;;;;;;;5111141;28;20411;-92
2023/01/03 07:08:17;;;;;;;8.83;4.40;;;;;;;;;;5107088;28;20474;-93
2023/01/03 07:10:43;;;;;;;8.43;4.73;;;;;;;;;;5107615;28;20448;-93
2023/01/03 07:15:53;;;;;;;9.53;5.50;;;;;;;;;;5106230;28;20435;-90
2023/01/03 07:18:19;;;;;;;10.80;5.60;;;;;;;;;;5106276;28;20437;-92
2023/01/03 07:20:47;;;;;;;10.50;6.50;;;;;;;;;;5108033;28;20734;-86
2023/01/03 07:23:13;;;;;;;10.30;4.80;;;;;;;;;;5062711;28;20431;-83
2023/01/03 07:25:40;;;;;;;12.03;4.43;;;;;;;;;;5107021;28;20407;-91
2023/01/03 07:28:16;;;;;;;10.60;4.33;;;;;;;;;;5097812;28;20469;-90
2023/01/03 07:30:43;;;;;;;8.33;4.00;;;;;;;;;;5098139;28;20797;-88
2023/01/03 07:33:10;;;;;;;7.27;4.10;;;;;;;;;;5105646;28;20411;-92
2023/01/03 07:35:36;;;;;;;7.43;3.57;;;;;;;;;;5104566;28;20426;-91
2023/01/03 07:38:02;;;;;;;6.87;3.40;;;;;;;;;;5101294;28;20418;-86
2023/01/03 07:40:29;;;;;;;6.20;3.93;;;;;;;;;;5103904;28;20432;-91
2023/01/03 07:45:41;;;;;;;8.20;4.00;;;;;;;;;;5110133;28;20421;-83
2023/01/03 07:48:06;;;;;;;5.30;3.63;;;;;;;;;;5105747;28;20863;-87
2023/01/03 07:50:32;;;;;;;7.03;2.90;;;;;;;;;;5100841;28;20433;-94
2023/01/03 07:52:58;;;;;;;7.40;3.90;;;;;;;;;;5095423;28;20411;-86
2023/01/03 07:55:24;;;;;;;6.10;3.13;;;;;;;;;;5096383;28;20414;-93
2023/01/03 07:57:50;;;;;;;8.40;3.63;;;;;;;;;;5096080;28;20513;-88
2023/01/03 08:00:16;;;;;;;6.53;3.43;;;;;;;;;;5095784;28;20419;-93
2023/01/03 08:02:42;;;;;;;11.50;3.90;;;;;;;;;;5096279;28;20460;-92
2023/01/03 08:05:08;;;;;;;6.07;2.77;;;;;;;;;;5096383;28;20851;-91
2023/01/03 08:07:35;;;;;;;7.47;3.87;;;;;;;;;;5096150;28;20414;-92
2023/01/03 08:15:30;;;;;;;11.63;4.20;;;;;;;;;;5096549;28;20407;-93
2023/01/03 08:17:56;;;;;;;7.63;3.00;;;;;;;;;;5096622;28;20497;-93
2023/01/03 08:20:22;;;;;;;7.87;3.80;;;;;;;;;;5096418;28;20409;-92
2023/01/03 08:22:48;;;;;;;7.10;4.43;;;;;;;;;;5096383;28;20502;-90
2023/01/03 08:25:13;;;;;;;7.83;2.80;;;;;;;;;;5085220;28;20498;-89
2023/01/03 08:27:39;;;;;;;8.57;3.97;;;;;;;;;;5067483;28;20808;-91
2023/01/03 08:30:05;;;;;;;14.90;4.47;;;;;;;;;;5095888;28;20565;-91
2023/01/03 08:32:33;;;;;;;8.87;3.40;;;;;;;;;;5095904;28;20405;-92
2023/01/03 08:35:01;;;;;;;7.43;3.63;;;;;;;;;;5095925;28;20402;-92
2023/01/03 08:37:27;;;;;;;9.07;3.37;;;;;;;;;;5095730;28;20403;-92
2023/01/03 08:39:56;;;;;;;5.27;3.80;;;;;;;;;;5095563;28;20784;-92
2023/01/03 08:42:22;;;;;;;10.57;3.00;;;;;;;;;;5095703;28;20471;-91
2023/01/03 08:44:49;;;;;;;6.97;3.67;;;;;;;;;;5094566;28;20425;-96
2023/01/03 08:47:15;;;;;;;8.70;4.57;;;;;;;;;;5096237;28;20770;-93
2023/01/03 08:49:41;;;;;;;6.80;4.37;;;;;;;;;;5094336;28;20459;-91
2023/01/03 08:52:07;;;;;;;8.63;3.43;;;;;;;;;;5095474;28;20911;-89
2023/01/03 08:54:33;;;;;;;5.10;3.77;;;;;;;;;;5094360;28;20423;-89
2023/01/03 08:56:59;;;;;;;7.20;3.10;;;;;;;;;;5094943;28;20452;-91
2023/01/03 08:59:25;;;;;;;8.00;3.33;;;;;;;;;;5094752;28;20450;-94
2023/01/03 09:01:51;;;;;;;8.40;3.80;;;;;;;;;;5095956;28;20415;-94
2023/01/03 09:04:17;;;;;;;5.97;3.50;;;;;;;;;;5096960;28;20408;-92
2023/01/03 09:06:43;;;;;;;7.90;4.07;;;;;;;;;;5099023;28;20412;-94
2023/01/03 09:09:09;;;;;;;6.53;2.60;;;;;;;;;;5095522;28;20491;-94
2023/01/03 09:11:35;;;;;;;7.00;3.33;;;;;;;;;;5094595;28;20416;-92
2023/01/03 09:14:01;;;;;;;10.10;3.77;;;;;;;;;;5095323;28;20446;-94
2023/01/03 09:16:27;;;;;;;6.60;3.20;;;;;;;;;;5105745;28;20473;-89
2023/01/03 09:18:53;;;;;;;10.13;3.20;;;;;;;;;;5094813;28;20408;-89
2023/01/03 09:21:22;;;;;;;8.30;3.43;;;;;;;;;;5094901;28;20413;-89
2023/01/03 09:23:47;;;;;;;7.47;4.00;;;;;;;;;;5093243;28;20425;-92
2023/01/03 09:26:13;;;;;;;9.17;3.30;;;;;;;;;;5056088;28;20427;-93
2023/01/03 09:28:39;;;;;;;8.20;4.00;;;;;;;;;;5093078;28;20835;-86
2023/01/03 09:31:05;;;;;;;7.07;4.20;;;;;;;;;;5093583;28;20431;-89
2023/01/03 09:33:57;;;;;;;6.67;3.50;;;;;;;;;;5095030;28;20408;-92
2023/01/03 09:36:46;;;;;;;6.93;3.30;;;;;;;;;;5095102;28;20406;-92
2023/01/03 09:39:32;;;;;;;9.00;5.00;;;;;;;;;;5094992;28;20826;-89
2023/01/03 09:44:44;;;;;;;6.17;3.93;;;;;;;;;;5094102;28;20403;-91
2023/01/03 09:47:16;;;;;;;7.63;4.17;;;;;;;;;;5094546;28;20425;-93
2023/01/03 09:49:42;;;;;;;7.43;4.23;;;;;;;;;;5095179;28;20514;-91
2023/01/03 10:03:52;;;;;;;7.63;4.47;;;;;;;;;;5094668;28;20465;-89
2023/01/03 10:06:30;;;;;;;8.67;4.53;;;;;;;;;;5093316;28;20808;-90
2023/01/03 10:09:17;;;;;;;7.67;3.90;;;;;;;;;;5092635;28;20503;-84
2023/01/03 10:11:52;;;;;;;8.30;4.80;;;;;;;;;;5092010;28;20909;-83
2023/01/03 10:14:37;;;;;;;9.73;4.50;;;;;;;;;;5091821;28;20414;-82
2023/01/03 10:17:06;;;;;;;6.70;3.70;;;;;;;;;;5091824;28;20427;-83
2023/01/03 10:19:50;;;;;;;4.87;2.70;;;;;;;;;;5091856;28;20462;-82
2023/01/03 10:22:18;;;;;;;6.30;3.70;;;;;;;;;;5091841;28;20493;-84
2023/01/03 10:24:46;;;;;;;8.63;3.80;;;;;;;;;;5091363;28;20506;-88
2023/01/03 10:27:15;;;;;;;8.53;3.90;;;;;;;;;;5091614;28;20787;-83
2023/01/03 10:29:41;;;;;;;5.63;3.03;;;;;;;;;;5053327;28;20481;-84
2023/01/03 10:32:15;;;;;;;7.90;3.80;;;;;;;;;;5097102;28;20753;-85
2023/01/03 10:34:41;;;;;;;8.23;2.93;;;;;;;;;;5096981;28;20394;-86
2023/01/03 10:37:15;;;;;;;5.47;3.00;;;;;;;;;;5095774;28;20420;-82
2023/01/03 10:39:47;;;;;;;5.37;2.23;;;;;;;;;;5096443;28;20182;-81
2023/01/03 10:42:23;;;;;;;9.80;3.00;;;;;;;;;;5096881;28;20419;-81
2023/01/03 10:44:57;;;;;;;8.13;2.33;;;;;;;;;;5096909;28;20686;-81
2023/01/03 10:47:24;;;;;;;9.10;3.60;;;;;;;;;;5095473;28;20420;-81
2023/01/03 10:49:57;;;;;;;3.40;2.47;;;;;;;;;;5095315;28;20476;-81
2023/01/03 10:52:23;;;;;;;6.67;3.50;;;;;;;;;;5096654;28;20422;-81
2023/01/03 10:54:51;;;;;;;6.87;2.90;;;;;;;;;;5094932;28;20926;-81
2023/01/03 10:57:37;;;;;;;4.70;1.73;;;;;;;;;;5095315;28;20411;-81
2023/01/03 11:00:20;;;;;;;4.10;1.90;;;;;;;;;;5095335;28;20422;-81
2023/01/03 11:02:46;;;;;;;4.47;1.20;;;;;;;;;;5096609;28;20420;-81
2023/01/03 11:05:16;;;;;;;4.63;1.70;;;;;;;;;;5096403;28;20424;-81
2023/01/03 11:07:43;;;;;;;3.87;1.33;;;;;;;;;;5095978;28;20489;-81
2023/01/03 11:10:16;;;;;;;3.33;1.50;;;;;;;;;;5096387;28;20475;-82
2023/01/03 11:12:41;;;;;;;5.17;1.73;;;;;;;;;;5096309;28;20406;-81
2023/01/03 11:15:26;;;;;;;6.37;1.20;;;;;;;;;;5096310;28;20426;-82
2023/01/03 11:17:54;;;;;;;3.87;0.90;;;;;;;;;;5095104;28;20418;-81
2023/01/03 11:20:20;;;;;;;2.40;0.80;;;;;;;;;;5096482;28;21073;-82
2023/01/03 11:22:53;;;;;;;4.50;0.50;;;;;;;;;;5096039;28;20405;-82
2023/01/03 11:25:30;;;;;;;1.63;0.60;;;;;;;;;;5096348;28;20415;-82
2023/01/03 11:28:15;;;;;;;4.07;1.47;;;;;;;;;;5096160;28;20406;-82
2023/01/03 11:30:41;;;;;;;1.70;0.60;;;;;;;;;;5053540;28;20485;-80
2023/01/03 11:33:07;;;;;;;2.87;0.70;;;;;;;;;;5096274;28;20441;-82
2023/01/03 11:35:37;;;;;;;3.23;0.70;;;;;;;;;;5096249;28;20408;-83
2023/01/03 11:38:26;;;;;;;5.13;0.40;;;;;;;;;;5095883;28;20496;-84
2023/01/03 11:40:52;;;;;;;4.00;0.50;;;;;;;;;;5087356;28;20443;-83
2023/01/03 11:43:35;;;;;;;2.40;0.53;;;;;;;;;;5096162;28;20772;-83
2023/01/03 11:46:20;;;;;;;2.70;0.53;;;;;;;;;;5094807;28;20413;-83
2023/01/03 11:48:55;;;;;;;2.30;1.13;;;;;;;;;;5095956;28;20473;-83
2023/01/03 11:51:21;;;;;;;1.00;0.37;;;;;;;;;;5094160;28;20412;-83
2023/01/03 11:53:50;;;;;;;2.40;0.77;;;;;;;;;;5094256;28;20468;-83
2023/01/03 11:56:19;;;;;;;3.30;1.40;;;;;;;;;;5094484;28;20406;-83
2023/01/03 11:58:54;;;;;;;2.43;0.47;;;;;;;;;;5095951;28;20404;-83
2023/01/03 12:01:32;;;;;;;2.60;0.50;;;;;;;;;;5095880;28;20504;-83
2023/01/03 12:03:57;;;;;;;2.30;0.50;;;;;;;;;;5095535;28;20405;-83
2023/01/03 12:06:34;;;;;;;2.20;0.40;;;;;;;;;;5095268;28;20408;-83
2023/01/03 12:09:13;;;;;;;3.70;0.40;;;;;;;;;;5093465;28;20716;-83
2023/01/03 12:12:09;;;;;;;2.90;0.40;;;;;;;;;;5095178;28;20820;-83
2023/01/03 12:14:46;;;;;;;2.10;0.90;;;;;;;;;;5093598;28;20428;-83
2023/01/03 12:17:14;;;;;;;3.80;0.73;;;;;;;;;;5095021;28;20531;-80
2023/01/03 12:20:01;;;;;;;1.70;0.70;;;;;;;;;;5094978;28;20414;-80
2023/01/03 12:22:26;;;;;;;1.90;0.80;;;;;;;;;;5094589;28;20994;-80
2023/01/03 12:25:07;;;;;;;1.57;0.40;;;;;;;;;;5094704;28;20406;-87
2023/01/03 12:27:41;;;;;;;1.90;0.50;;;;;;;;;;5091288;28;20171;-84
2023/01/03 12:30:14;;;;;;;5.60;0.50;;;;;;;;;;5105465;28;20471;-88
2023/01/03 12:32:50;;;;;;;5.50;0.90;;;;;;;;;;5104812;28;20414;-89
2023/01/03 12:35:28;;;;;;;2.73;0.80;;;;;;;;;;5075435;28;20909;-88
2023/01/03 12:37:56;;;;;;;2.00;0.50;;;;;;;;;;5086399;28;20436;-90
2023/01/03 12:40:43;;;;;;;3.00;0.43;;;;;;;;;;5091944;28;20461;-94
2023/01/03 12:43:29;;;;;;;1.60;0.53;;;;;;;;;;5076401;28;20414;-82
2023/01/03 12:45:55;;;;;;;2.30;0.80;;;;;;;;;;5073829;28;20407;-81
2023/01/03 12:48:24;;;;;;;2.97;1.43;;;;;;;;;;5077445;28;20461;-83
2023/01/03 12:50:51;;;;;;;6.27;1.80;;;;;;;;;;5092874;28;20421;-83
2023/01/03 12:53:30;;;;;;;3.53;1.70;;;;;;;;;;5091879;28;20499;-83
2023/01/03 12:56:16;;;;;;;2.93;1.17;;;;;;;;;;5094340;28;20412;-81
2023/01/03 12:59:00;;;;;;;6.27;2.60;;;;;;;;;;5094336;28;20885;-82
2023/01/03 13:01:33;;;;;;;6.13;2.20;;;;;;;;;;5094175;28;20423;-82
2023/01/03 13:04:02;;;;;;;2.90;1.23;;;;;;;;;;5094476;28;20824;-83
2023/01/03 13:06:30;;;;;;;5.90;1.80;;;;;;;;;;5093721;28;20939;-81
2023/01/03 13:09:00;;;;;;;5.83;1.90;;;;;;;;;;5093357;28;20553;-83
2023/01/03 13:11:30;;;;;;;4.37;2.00;;;;;;;;;;5093181;28;20418;-83
2023/01/03 13:14:15;;;;;;;5.30;1.70;;;;;;;;;;5093316;28;20774;-82
2023/01/03 13:16:43;;;;;;;4.03;1.83;;;;;;;;;;5092892;28;21015;-84
2023/01/03 13:19:21;;;;;;;4.93;1.27;;;;;;;;;;5091854;28;20446;-81
2023/01/03 13:22:03;;;;;;;2.97;1.60;;;;;;;;;;5090775;28;20419;-83
2023/01/03 13:24:40;;;;;;;4.10;1.67;;;;;;;;;;5091945;28;20413;-82
2023/01/03 13:27:24;;;;;;;5.53;1.93;;;;;;;;;;5089890;28;20408;-83
2023/01/03 13:29:51;;;;;;;6.13;2.70;;;;;;;;;;5091371;28;21042;-83
2023/01/03 13:32:20;;;;;;;4.57;1.87;;;;;;;;;;5093641;28;20407;-84
2023/01/03 13:35:09;;;;;;;5.33;1.70;;;;;;;;;;5051867;28;20935;-84
2023/01/03 13:37:46;;;;;;;6.87;1.83;;;;;;;;;;5098380;28;20418;-84
2023/01/03 13:40:21;;;;;;;5.10;2.10;;;;;;;;;;5093496;28;20407;-84
2023/01/03 13:42:47;;;;;;;7.20;2.13;;;;;;;;;;5093378;28;20437;-83
2023/01/03 13:45:16;;;;;;;3.27;1.70;;;;;;;;;;5092012;28;20427;-83
2023/01/03 13:47:49;;;;;;;4.60;1.77;;;;;;;;;;5091503;28;20408;-83
2023/01/03 13:50:29;;;;;;;2.97;1.13;;;;;;;;;;5093366;28;20474;-83
2023/01/03 13:52:55;;;;;;;9.10;2.63;;;;;;;;;;5091713;28;20748;-83
2023/01/03 13:55:33;;;;;;;5.37;2.33;;;;;;;;;;5093198;28;20418;-84
2023/01/03 13:57:59;;;;;;;5.47;2.30;;;;;;;;;;5092202;28;20180;-83
2023/01/03 14:00:31;;;;;;;4.97;1.93;;;;;;;;;;5093226;28;20790;-84
2023/01/03 14:03:20;;;;;;;7.60;2.30;;;;;;;;;;5093325;28;20834;-83
2023/01/03 14:05:57;;;;;;;4.00;2.07;;;;;;;;;;5091895;28;20424;-83
2023/01/03 14:08:26;;;;;;;6.97;2.87;;;;;;;;;;5091383;28;20990;-83
2023/01/03 14:14:00;;;;;;;4.83;2.70;;;;;;;;;;5092375;28;20474;-90
2023/01/03 14:16:45;;;;;;;5.80;2.27;;;;;;;;;;5072129;28;20480;-93
2023/01/03 14:19:23;;;;;;;4.83;2.80;;;;;;;;;;5073091;28;20418;-93
2023/01/03 14:21:58;;;;;;;2.80;1.70;;;;;;;;;;5071572;28;20433;-89
2023/01/03 14:24:26;;;;;;;4.87;3.00;;;;;;;;;;5071767;28;20493;-88
2023/01/03 14:26:53;;;;;;;4.83;2.30;;;;;;;;;;5071190;28;20979;-87
2023/01/03 14:29:21;;;;;;;3.63;1.80;;;;;;;;;;5074629;28;20660;-92
2023/01/03 14:31:54;;;;;;;5.23;2.73;;;;;;;;;;5074618;28;20480;-89
2023/01/03 14:34:34;;;;;;;6.33;2.50;;;;;;;;;;5074139;28;21002;-87
2023/01/03 14:37:00;;;;;;;5.97;2.93;;;;;;;;;;5075108;28;20925;-89
2023/01/03 14:39:31;;;;;;;8.33;3.90;;;;;;;;;;5074388;28;20985;-90
2023/01/03 14:41:58;;;;;;;10.43;2.97;;;;;;;;;;5075102;28;20399;-91
2023/01/03 14:44:24;;;;;;;6.10;2.20;;;;;;;;;;5073663;28;20451;-91
2023/01/03 14:46:52;;;;;;;7.33;3.00;;;;;;;;;;5073028;28;20785;-89
2023/01/03 14:49:24;;;;;;;5.47;3.27;;;;;;;;;;5074243;28;20477;-91
2023/01/03 14:51:50;;;;;;;8.93;3.63;;;;;;;;;;5073021;28;20474;-89
2023/01/03 14:54:19;;;;;;;5.87;3.47;;;;;;;;;;5074282;28;20423;-91
2023/01/03 14:56:45;;;;;;;6.40;4.10;;;;;;;;;;5078017;28;20825;-88
2023/01/03 14:59:16;;;;;;;6.97;3.67;;;;;;;;;;5081821;28;20776;-90
2023/01/03 15:01:43;;;;;;;5.60;2.63;;;;;;;;;;5075164;28;20471;-85
2023/01/03 15:04:13;;;;;;;7.50;3.00;;;;;;;;;;5071842;28;20461;-88
2023/01/03 15:06:53;;;;;;;8.93;3.57;;;;;;;;;;5071881;28;20856;-89
2023/01/03 15:09:21;;;;;;;6.53;3.80;;;;;;;;;;5072612;28;20486;-88
2023/01/03 15:11:58;;;;;;;8.07;3.77;;;;;;;;;;5071478;28;20446;-88
2023/01/03 15:14:28;;;;;;;8.70;3.40;;;;;;;;;;5075792;28;20407;-87
2023/01/03 15:17:22;;;;;;;7.63;3.00;;;;;;;;;;5073785;28;20430;-87
2023/01/03 15:19:50;;;;;;;8.40;3.40;;;;;;;;;;5074584;28;20430;-90
2023/01/03 15:22:19;;;;;;;7.87;3.13;;;;;;;;;;5076079;28;20517;-88
2023/01/03 15:24:46;;;;;;;7.20;4.53;;;;;;;;;;5076579;28;20412;-87
2023/01/03 15:27:31;;;;;;;7.70;4.83;;;;;;;;;;5045122;28;20437;-88
2023/01/03 15:30:08;;;;;;;13.57;6.57;;;;;;;;;;5096329;28;20471;-89
2023/01/03 15:32:44;;;;;;;10.27;6.10;;;;;;;;;;5095097;28;20422;-88
2023/01/03 15:35:18;;;;;;;11.80;6.27;;;;;;;;;;5095007;28;20417;-88
2023/01/03 15:37:43;;;;;;;14.50;8.37;;;;;;;;;;5094903;28;20415;-89
2023/01/03 15:40:13;;;;;;;10.57;7.70;;;;;;;;;;5095041;28;20418;-88
2023/01/03 15:45:38;;;;;;;16.37;9.70;;;;;;;;;;5096487;28;20432;-88
2023/01/03 15:48:05;;;;;;;15.27;9.03;;;;;;;;;;5094892;28;20846;-88
2023/01/03 15:50:43;;;;;;;12.80;8.13;;;;;;;;;;5094591;28;20433;-88
2023/01/03 15:53:35;;;;;;;11.27;6.83;;;;;;;;;;5094357;28;20429;-87
2023/01/03 15:56:22;;;;;;;15.00;7.70;;;;;;;;;;5090124;28;20413;-87
2023/01/03 15:58:49;;;;;;;15.43;9.07;;;;;;;;;;5095224;28;20416;-88
2023/01/03 16:01:16;;;;;;;17.47;10.17;;;;;;;;;;5096152;28;20409;-89
2023/01/03 16:03:43;;;;;;;20.43;11.07;;;;;;;;;;5096164;28;20421;-90
2023/01/03 16:06:09;;;;;;;15.43;9.70;;;;;;;;;;5095184;28;20516;-90
2023/01/03 16:08:36;;;;;;;15.00;9.53;;;;;;;;;;5095017;28;20512;-90
2023/01/03 16:11:04;;;;;;;14.90;7.20;;;;;;;;;;5095378;28;20495;-90
2023/01/03 16:13:32;;;;;;;18.90;11.70;;;;;;;;;;5099106;28;20425;-89